Time;durP1;ratioP1;P1;durP2;ratioP2;P2;SDS_P1;SDS_P2;PMS_P1;PMS_P2;Temp;Humidity;BMP_temperature;BMP_pressure;BME280_temperature;BME280_humidity;BME280_pressure;Samples;Min_cycle;Max_cycle;Signal;HPM_P1;HPM_P2
2024/03/17 00:06:40;;;;;;;7.50;5.20;;;;;;;6.22;72.22;98855.14;102807;1289;599988;-25
2024/03/17 00:09:09;;;;;;;6.60;3.70;;;;;;;6.45;71.18;98854.34;105062;1263;61144;-25
2024/03/17 00:11:36;;;;;;;9.30;5.10;;;;;;;6.43;71.03;98851.72;105061;1264;61104;-25
2024/03/17 00:14:05;;;;;;;6.90;5.10;;;;;;;6.31;71.29;98853.15;104858;1264;71530;-26
2024/03/17 00:16:32;;;;;;;7.20;5.30;;;;;;;6.01;72.43;98850.82;105089;1269;74305;-26
2024/03/17 00:25:36;;;;;;;3.70;3.30;;;;;;;6.60;70.71;98847.27;102745;1292;599510;-25
2024/03/17 00:28:04;;;;;;;9.50;6.20;;;;;;;6.43;71.04;98838.76;104825;1271;61136;-25
2024/03/17 00:30:32;;;;;;;9.60;6.90;;;;;;;6.22;71.32;98837.27;104885;1264;61114;-26
2024/03/17 00:39:55;;;;;;;7.40;4.70;;;;;;;6.61;70.83;98824.44;102686;1292;600155;-27
2024/03/17 00:42:22;;;;;;;12.30;7.10;;;;;;;6.42;71.09;98820.23;104803;1271;61193;-28
2024/03/17 00:44:50;;;;;;;6.60;4.40;;;;;;;6.04;72.46;98822.17;104800;1266;61073;-26
2024/03/17 00:47:17;;;;;;;9.40;5.60;;;;;;;6.10;72.77;98825.78;104861;1266;70632;-26
2024/03/17 00:57:23;;;;;;;6.30;4.70;;;;;;;5.95;72.91;98805.73;102766;1292;599574;-25
2024/03/17 01:07:25;;;;;;;6.50;5.00;;;;;;;6.44;71.21;98790.55;102716;1292;599470;-25
2024/03/17 01:09:54;;;;;;;11.70;7.70;;;;;;;6.05;72.45;98790.08;105036;1267;61113;-25
2024/03/17 01:12:22;;;;;;;4.30;3.30;;;;;;;5.98;72.94;98790.38;104875;1267;61052;-25
2024/03/17 01:22:24;;;;;;;5.80;3.90;;;;;;;6.39;71.55;98789.00;102718;1293;599064;-26
2024/03/17 01:24:52;;;;;;;10.60;6.70;;;;;;;6.10;72.26;98790.98;104801;1270;61279;-26
2024/03/17 01:27:19;;;;;;;10.80;6.10;;;;;;;6.13;72.91;98790.11;104804;1267;61118;-26
2024/03/17 01:37:32;;;;;;;9.40;5.90;;;;;;;6.29;71.37;98789.02;102688;1290;600203;-25
2024/03/17 01:39:59;;;;;;;11.60;5.60;;;;;;;5.93;72.45;98787.76;104793;1268;61105;-27
2024/03/17 01:42:29;;;;;;;8.20;5.70;;;;;;;6.21;72.22;98789.00;104844;1266;61142;-26
2024/03/17 01:44:56;;;;;;;8.20;5.20;;;;;;;6.43;71.35;98791.50;104842;1264;73058;-26
2024/03/17 01:55:05;;;;;;;6.90;4.20;;;;;;;6.16;72.78;98773.70;102666;1292;598995;-25
2024/03/17 01:57:33;;;;;;;7.20;3.70;;;;;;;6.31;71.74;98774.20;104849;1272;61159;-28
2024/03/17 02:00:00;;;;;;;12.30;6.20;;;;;;;6.28;71.58;98775.10;104729;1273;61186;-27
2024/03/17 02:02:35;;;;;;;5.40;2.80;;;;;;;6.01;72.36;98770.05;104822;1272;73139;-25
2024/03/17 02:12:36;;;;;;;9.60;5.10;;;;;;;6.48;71.49;98766.71;102719;1294;599383;-25
2024/03/17 02:22:42;;;;;;;12.00;6.80;;;;;;;6.45;71.97;98768.42;102714;1293;599403;-25
2024/03/17 02:32:52;;;;;;;7.10;4.70;;;;;;;6.10;72.28;98757.55;102699;1294;599544;-25
2024/03/17 02:42:55;;;;;;;8.30;5.90;;;;;;;6.63;70.39;98746.19;102759;1289;599437;-25
2024/03/17 02:53:03;;;;;;;8.70;5.60;;;;;;;6.50;71.73;98744.85;102777;1290;599211;-25
2024/03/17 02:55:30;;;;;;;8.70;5.20;;;;;;;6.28;72.08;98739.80;104994;1267;61091;-25
2024/03/17 02:57:58;;;;;;;8.50;5.30;;;;;;;5.98;73.02;98741.40;104789;1265;61115;-26
2024/03/17 03:00:26;;;;;;;7.90;5.10;;;;;;;5.78;74.50;98747.88;104809;1267;73049;-25
2024/03/17 03:10:35;;;;;;;5.00;3.40;;;;;;;6.25;72.45;98736.70;102732;1292;599116;-25
2024/03/17 03:13:03;;;;;;;7.50;4.90;;;;;;;5.94;73.88;98738.42;105014;1268;61126;-25
2024/03/17 03:15:32;;;;;;;11.80;6.40;;;;;;;6.44;72.45;98742.30;104860;1267;61062;-25
2024/03/17 03:18:00;;;;;;;6.30;4.60;;;;;;;6.63;71.31;98746.35;105038;1267;72767;-27
2024/03/17 03:20:28;;;;;;;9.80;5.40;;;;;;;6.54;71.35;98740.63;104821;1266;74371;-27
2024/03/17 03:30:38;;;;;;;9.00;5.00;;;;;;;6.65;71.45;98735.70;102653;1295;598634;-25
2024/03/17 03:33:05;;;;;;;7.70;4.80;;;;;;;6.49;71.83;98733.84;104828;1272;61175;-25
2024/03/17 03:35:34;;;;;;;9.30;5.60;;;;;;;6.29;72.36;98729.52;104953;1267;61138;-25
2024/03/17 03:38:02;;;;;;;9.40;5.50;;;;;;;6.00;73.40;98728.54;104925;1269;71753;-27
2024/03/17 03:40:30;;;;;;;7.30;4.60;;;;;;;6.28;73.01;98728.71;104854;1271;73935;-27
2024/03/17 03:42:58;;;;;;;10.30;6.70;;;;;;;6.70;71.43;98727.55;104827;1273;72681;-27
2024/03/17 03:45:26;;;;;;;12.40;7.50;;;;;;;6.73;70.88;98727.33;104758;1269;264331;-28
2024/03/17 03:47:53;;;;;;;7.90;5.30;;;;;;;6.59;71.11;98727.48;105132;1263;61035;-26
2024/03/17 03:50:21;;;;;;;13.50;7.10;;;;;;;6.28;72.25;98731.48;105030;1268;73021;-26
2024/03/17 03:59:41;;;;;;;11.70;6.40;;;;;;;6.66;71.19;98734.09;102660;1295;600102;-27
2024/03/17 04:09:51;;;;;;;7.30;4.90;;;;;;;6.98;70.75;98736.14;102728;1292;599898;-25
2024/03/17 04:12:19;;;;;;;12.00;7.00;;;;;;;6.93;70.42;98734.78;104851;1266;61130;-25
2024/03/17 04:14:46;;;;;;;11.70;5.90;;;;;;;6.75;70.45;98731.16;104847;1271;61250;-25
2024/03/17 04:23:53;;;;;;;6.30;4.10;;;;;;;6.70;71.56;98733.41;103341;1284;600115;-25
2024/03/17 04:33:44;;;;;;;11.50;7.20;;;;;;;6.37;73.01;98731.06;102700;1294;600677;-25
2024/03/17 04:36:13;;;;;;;7.60;5.10;;;;;;;6.96;70.86;98732.61;104834;1266;61113;-25
2024/03/17 04:38:41;;;;;;;13.00;7.90;;;;;;;7.10;70.04;98734.41;104867;1267;61101;-27
2024/03/17 04:48:47;;;;;;;10.80;5.80;;;;;;;6.69;71.80;98735.54;102700;1292;599553;-25
2024/03/17 04:51:16;;;;;;;10.60;6.50;;;;;;;7.26;70.04;98733.59;104834;1269;61155;-26
2024/03/17 04:53:44;;;;;;;17.20;7.20;;;;;;;7.27;69.23;98734.61;104870;1264;61043;-27
2024/03/17 04:56:11;;;;;;;13.70;8.60;;;;;;;7.08;69.79;98732.16;104805;1266;71802;-28
2024/03/17 04:58:39;;;;;;;14.10;7.40;;;;;;;6.78;70.69;98736.19;104817;1267;73336;-28
2024/03/17 05:01:09;;;;;;;13.00;6.20;;;;;;;6.49;72.00;98735.41;104775;1271;73338;-28
2024/03/17 05:03:37;;;;;;;13.60;7.00;;;;;;;7.05;70.76;98735.98;104918;1264;226365;-27
2024/03/17 05:06:05;;;;;;;11.60;6.00;;;;;;;7.42;69.22;98731.77;105007;1268;61257;-27
2024/03/17 05:16:08;;;;;;;6.80;5.10;;;;;;;6.72;71.66;98742.58;102695;1294;599249;-25
2024/03/17 05:18:38;;;;;;;12.20;5.60;;;;;;;7.11;70.75;98744.90;104780;1264;61149;-25
2024/03/17 05:21:06;;;;;;;13.70;7.80;;;;;;;7.40;69.68;98741.94;104824;1269;61040;-25
2024/03/17 05:23:34;;;;;;;7.70;4.70;;;;;;;7.27;69.96;98740.10;104869;1269;72978;-25
2024/03/17 05:26:04;;;;;;;10.00;6.50;;;;;;;7.15;70.22;98738.40;104826;1272;74319;-25
2024/03/17 05:28:31;;;;;;;12.10;5.40;;;;;;;6.89;71.26;98740.38;104831;1272;72676;-25
2024/03/17 05:30:59;;;;;;;7.20;5.10;;;;;;;7.01;71.54;98736.94;104838;1278;273639;-25
2024/03/17 05:33:26;;;;;;;5.20;3.80;;;;;;;7.45;70.16;98739.01;105176;1269;61061;-25
2024/03/17 05:35:56;;;;;;;10.10;7.10;;;;;;;7.56;69.62;98736.11;105152;1269;71272;-25
2024/03/17 05:38:26;;;;;;;8.40;6.20;;;;;;;7.43;69.88;98734.66;104921;1270;74029;-25
2024/03/17 05:40:57;;;;;;;13.90;7.30;;;;;;;7.28;70.36;98739.16;104899;1271;72353;-25
2024/03/17 05:51:20;;;;;;;14.10;8.90;;;;;;;7.88;68.76;98734.26;102623;1291;614114;-26
2024/03/17 05:53:47;;;;;;;10.80;6.80;;;;;;;7.60;69.50;98735.11;105206;1268;61118;-25
2024/03/17 05:56:15;;;;;;;7.80;4.90;;;;;;;7.40;70.12;98736.90;105149;1269;61148;-25
2024/03/17 05:58:42;;;;;;;7.60;4.80;;;;;;;7.67;70.22;98734.05;105136;1267;73001;-26
2024/03/17 06:01:11;;;;;;;13.50;7.40;;;;;;;8.14;68.51;98731.44;105150;1270;74299;-26
2024/03/17 06:03:38;;;;;;;11.80;6.50;;;;;;;8.16;67.84;98731.98;105006;1267;216528;-26
2024/03/17 06:06:12;;;;;;;16.20;9.20;;;;;;;7.96;68.38;98730.38;105108;1264;61068;-25
2024/03/17 06:08:39;;;;;;;12.60;7.30;;;;;;;7.84;68.94;98728.87;104988;1262;61124;-26
2024/03/17 06:11:06;;;;;;;12.60;7.10;;;;;;;7.59;70.33;98727.61;104865;1264;72952;-27
2024/03/17 06:13:33;;;;;;;9.30;5.70;;;;;;;8.14;68.75;98732.11;104998;1264;74130;-28
2024/03/17 06:16:05;;;;;;;11.70;7.10;;;;;;;8.40;68.04;98733.59;104989;1264;72605;-28
2024/03/17 06:18:32;;;;;;;9.00;5.10;;;;;;;8.20;68.43;98732.17;104858;1263;62013;-27
2024/03/17 06:20:59;;;;;;;10.50;7.20;;;;;;;8.10;68.59;98734.30;104870;1267;61170;-27
2024/03/17 06:23:27;;;;;;;10.70;7.10;;;;;;;7.83;69.68;98727.01;104884;1266;75317;-28
2024/03/17 06:25:55;;;;;;;16.30;8.00;;;;;;;8.01;69.90;98734.16;104881;1264;75688;-27
2024/03/17 06:28:22;;;;;;;12.50;6.90;;;;;;;8.48;68.59;98732.34;105120;1266;73364;-28
2024/03/17 06:30:59;;;;;;;13.30;7.50;;;;;;;8.59;67.86;98735.81;105051;1262;61128;-28
2024/03/17 06:33:28;;;;;;;11.00;6.90;;;;;;;8.28;68.60;98732.95;105101;1267;61207;-25
2024/03/17 06:35:56;;;;;;;10.70;7.10;;;;;;;8.13;69.31;98733.95;105220;1264;73773;-25
2024/03/17 06:38:23;;;;;;;9.20;5.70;;;;;;;8.17;69.57;98731.05;105212;1266;74317;-25
2024/03/17 06:40:51;;;;;;;15.90;8.50;;;;;;;8.62;68.24;98730.36;105137;1263;71561;-26
2024/03/17 06:43:19;;;;;;;9.80;6.30;;;;;;;9.06;66.81;98732.83;104945;1267;61052;-26
2024/03/17 06:45:56;;;;;;;11.30;7.30;;;;;;;8.85;67.07;98733.62;104791;1264;61177;-25
2024/03/17 06:48:24;;;;;;;14.90;9.50;;;;;;;8.58;68.10;98735.68;104866;1267;72645;-26
2024/03/17 06:50:52;;;;;;;11.80;8.10;;;;;;;8.66;68.20;98734.42;104935;1264;72863;-26
2024/03/17 06:53:20;;;;;;;14.50;7.10;;;;;;;8.54;68.56;98732.91;105226;1263;72497;-26
2024/03/17 06:55:54;;;;;;;11.20;7.40;;;;;;;8.95;67.30;98731.23;105213;1263;61106;-27
2024/03/17 06:58:22;;;;;;;15.30;7.10;;;;;;;9.15;66.42;98731.77;104843;1262;61184;-26
2024/03/17 07:01:02;;;;;;;13.70;8.70;;;;;;;8.91;67.20;98731.06;105041;1268;72785;-26
2024/03/17 07:03:30;;;;;;;11.40;7.10;;;;;;;8.81;67.52;98733.92;105136;1269;74354;-27
2024/03/17 07:05:58;;;;;;;12.30;8.00;;;;;;;8.70;68.23;98733.92;105139;1264;72543;-27
2024/03/17 07:08:26;;;;;;;10.10;6.30;;;;;;;9.01;67.85;98729.27;104859;1264;61097;-27
2024/03/17 07:10:57;;;;;;;14.20;7.50;;;;;;;9.40;66.36;98729.27;105167;1268;61135;-27
2024/03/17 07:13:24;;;;;;;16.80;10.50;;;;;;;9.42;66.15;98728.00;105067;1269;72613;-26
2024/03/17 07:15:51;;;;;;;20.80;11.00;;;;;;;9.44;66.53;98732.42;105195;1264;74753;-26
2024/03/17 07:18:18;;;;;;;16.60;9.30;;;;;;;9.42;67.04;98730.47;105204;1264;73189;-26
2024/03/17 07:20:47;;;;;;;15.70;8.60;;;;;;;9.03;68.11;98722.98;105117;1264;61066;-27
2024/03/17 07:23:15;;;;;;;16.10;9.20;;;;;;;9.37;68.50;98729.98;104782;1270;61137;-26
2024/03/17 07:25:42;;;;;;;14.10;9.10;;;;;;;10.05;65.70;98726.70;105082;1263;72403;-26
2024/03/17 07:28:10;;;;;;;14.80;9.30;;;;;;;10.18;64.95;98726.81;104854;1264;74352;-26
2024/03/17 07:30:38;;;;;;;16.60;9.40;;;;;;;10.21;64.90;98730.83;105216;1263;72557;-26
2024/03/17 07:33:04;;;;;;;13.10;8.10;;;;;;;9.94;65.62;98724.31;104803;1270;61177;-27
2024/03/17 07:35:32;;;;;;;18.00;10.80;;;;;;;9.62;67.13;98723.63;104957;1265;61201;-26
2024/03/17 07:37:59;;;;;;;16.50;9.90;;;;;;;9.93;66.75;98726.23;105041;1264;73721;-26
2024/03/17 07:40:26;;;;;;;18.40;9.60;;;;;;;10.52;64.78;98725.35;105161;1266;74250;-26
2024/03/17 07:42:53;;;;;;;15.30;9.50;;;;;;;10.68;64.10;98726.25;104852;1264;72666;-27
2024/03/17 07:45:20;;;;;;;15.90;9.10;;;;;;;10.61;64.17;98726.67;104851;1264;61042;-26
2024/03/17 07:47:50;;;;;;;18.60;11.70;;;;;;;10.33;65.07;98727.83;105026;1266;61140;-26
2024/03/17 07:50:17;;;;;;;17.70;11.40;;;;;;;10.26;65.70;98725.08;105055;1263;73689;-26
2024/03/17 07:52:45;;;;;;;12.60;8.90;;;;;;;9.91;67.24;98724.91;104983;1267;74176;-27
2024/03/17 07:55:12;;;;;;;12.60;8.90;;;;;;;10.38;66.04;98724.48;104830;1264;72345;-27
2024/03/17 07:57:40;;;;;;;14.90;9.00;;;;;;;10.39;65.92;98724.90;104974;1266;61063;-27
2024/03/17 08:00:18;;;;;;;15.60;9.90;;;;;;;10.58;65.27;98720.84;105175;1266;61127;-27
2024/03/17 08:02:45;;;;;;;16.50;10.40;;;;;;;10.42;65.53;98720.41;104774;1264;73828;-27
2024/03/17 08:05:13;;;;;;;16.80;10.40;;;;;;;10.23;67.04;98724.27;104901;1269;74150;-26
2024/03/17 08:07:42;;;;;;;12.30;6.80;;;;;;;10.00;68.34;98717.70;105019;1264;72504;-28
2024/03/17 08:10:10;;;;;;;16.80;10.20;;;;;;;10.38;67.70;98720.13;104979;1269;61202;-26
2024/03/17 08:12:38;;;;;;;11.90;6.70;;;;;;;10.89;66.18;98719.02;105137;1269;61156;-27
2024/03/17 08:15:06;;;;;;;14.90;10.10;;;;;;;10.77;66.39;98719.36;105313;1264;72862;-27
2024/03/17 08:17:33;;;;;;;18.10;10.70;;;;;;;10.55;67.37;98716.40;105051;1269;74450;-27
2024/03/17 08:20:00;;;;;;;16.60;10.60;;;;;;;10.21;68.55;98713.54;105002;1264;72584;-27
2024/03/17 08:22:27;;;;;;;20.50;11.70;;;;;;;9.94;69.77;98716.80;105088;1264;61221;-27
2024/03/17 08:24:53;;;;;;;15.00;9.60;;;;;;;9.84;71.11;98719.54;105093;1266;61142;-27
2024/03/17 08:27:20;;;;;;;16.20;10.50;;;;;;;10.35;69.62;98711.64;105059;1263;73683;-27
2024/03/17 08:29:48;;;;;;;17.00;11.30;;;;;;;10.41;69.06;98708.75;105139;1264;74439;-27
2024/03/17 08:32:17;;;;;;;18.30;10.80;;;;;;;10.32;69.62;98710.03;105068;1264;74329;-27
2024/03/17 08:34:47;;;;;;;17.20;11.60;;;;;;;10.07;70.57;98707.07;104853;1264;61242;-28
2024/03/17 08:37:14;;;;;;;17.10;9.50;;;;;;;9.87;71.43;98706.86;104792;1264;61052;-28
2024/03/17 08:39:41;;;;;;;15.30;10.00;;;;;;;10.18;70.72;98704.10;105042;1264;73785;-28
2024/03/17 08:42:08;;;;;;;18.50;10.50;;;;;;;10.31;69.87;98704.02;105051;1263;74306;-27
2024/03/17 08:44:35;;;;;;;16.80;9.60;;;;;;;10.29;69.74;98705.37;105032;1264;73544;-27
2024/03/17 08:47:02;;;;;;;16.80;9.50;;;;;;;9.98;71.19;98708.89;105014;1263;61035;-28
2024/03/17 08:49:29;;;;;;;19.70;12.00;;;;;;;9.85;71.55;98707.36;104981;1267;61112;-28
2024/03/17 08:51:56;;;;;;;13.90;8.20;;;;;;;9.74;72.52;98702.76;104909;1264;73551;-28
2024/03/17 08:54:23;;;;;;;17.20;10.60;;;;;;;10.07;71.04;98705.32;105121;1264;74210;-28
2024/03/17 08:56:50;;;;;;;18.00;11.50;;;;;;;10.05;71.11;98706.08;105213;1264;72475;-29
2024/03/17 08:59:17;;;;;;;15.50;9.10;;;;;;;9.96;71.62;98703.32;105009;1264;61139;-28
2024/03/17 09:01:44;;;;;;;18.00;11.70;;;;;;;9.85;71.83;98703.01;104934;1264;61166;-28
2024/03/17 09:04:11;;;;;;;14.00;9.40;;;;;;;9.68;72.87;98699.77;105059;1264;75730;-28
2024/03/17 09:06:38;;;;;;;15.30;10.40;;;;;;;10.09;71.90;98702.39;104951;1264;74123;-28
2024/03/17 09:09:06;;;;;;;15.50;9.90;;;;;;;10.55;70.32;98703.75;104904;1264;74474;-28
2024/03/17 09:11:33;;;;;;;16.00;10.40;;;;;;;10.43;70.08;98700.73;104903;1264;62141;-28
2024/03/17 09:14:01;;;;;;;16.60;11.50;;;;;;;10.34;70.37;98698.95;104889;1266;61760;-28
2024/03/17 09:16:30;;;;;;;14.70;10.50;;;;;;;10.10;71.49;98700.80;104907;1264;75171;-28
2024/03/17 09:18:57;;;;;;;15.00;9.70;;;;;;;10.15;71.87;98696.15;104899;1263;75199;-28
2024/03/17 09:21:24;;;;;;;14.40;10.00;;;;;;;10.64;70.48;98700.01;105124;1264;74022;-28
2024/03/17 09:23:51;;;;;;;16.80;10.90;;;;;;;10.60;70.53;98696.74;104877;1264;61156;-28
2024/03/17 09:26:18;;;;;;;15.90;10.20;;;;;;;10.64;70.70;98694.98;104955;1266;61240;-28
2024/03/17 09:28:45;;;;;;;17.70;12.00;;;;;;;10.35;71.89;98694.11;104969;1263;73778;-29
2024/03/17 09:31:12;;;;;;;12.60;7.90;;;;;;;10.04;73.88;98692.77;104893;1266;75390;-28
2024/03/17 09:33:40;;;;;;;12.40;8.90;;;;;;;10.55;72.87;98695.77;105191;1267;73410;-28
2024/03/17 09:36:08;;;;;;;14.90;10.80;;;;;;;10.84;71.80;98694.06;105070;1263;61031;-28
2024/03/17 09:38:35;;;;;;;15.50;11.00;;;;;;;10.96;71.41;98692.64;104933;1263;61163;-28
2024/03/17 09:41:03;;;;;;;18.50;10.90;;;;;;;10.91;71.62;98690.86;105016;1264;75368;-29
2024/03/17 09:43:36;;;;;;;11.60;8.10;;;;;;;10.51;73.37;98689.16;104892;1264;75139;-28
2024/03/17 09:46:04;;;;;;;15.10;8.80;;;;;;;11.11;72.69;98689.33;104968;1264;74651;-28
2024/03/17 09:48:32;;;;;;;16.20;10.00;;;;;;;11.58;70.45;98685.80;105136;1263;61273;-29
2024/03/17 09:51:00;;;;;;;15.70;10.30;;;;;;;11.48;71.22;98691.88;105119;1266;61655;-29
2024/03/17 09:53:28;;;;;;;16.10;9.70;;;;;;;11.31;71.51;98689.02;105069;1264;75365;-29
2024/03/17 09:56:16;;;;;;;15.20;11.10;;;;;;;10.94;73.20;98689.60;105091;1264;74742;-29
2024/03/17 09:58:43;;;;;;;12.50;8.70;;;;;;;10.93;74.00;98692.63;105013;1264;74291;-30
2024/03/17 10:01:11;;;;;;;13.30;8.90;;;;;;;11.48;72.59;98688.98;104730;1270;61980;-29
2024/03/17 10:03:51;;;;;;;14.90;9.80;;;;;;;11.89;71.17;98687.02;105168;1265;61812;-29
2024/03/17 10:06:19;;;;;;;15.80;11.10;;;;;;;11.50;72.16;98691.22;105006;1264;76432;-29
2024/03/17 10:08:54;;;;;;;15.00;11.30;;;;;;;11.21;73.12;98687.34;104871;1264;75656;-30
2024/03/17 10:11:31;;;;;;;13.60;8.20;;;;;;;11.24;73.60;98687.82;105145;1264;74197;-28
2024/03/17 10:14:00;;;;;;;12.10;8.70;;;;;;;11.90;71.63;98681.85;104979;1269;62195;-29
2024/03/17 10:16:31;;;;;;;16.60;9.30;;;;;;;11.86;71.23;98682.17;104899;1269;62062;-30
2024/03/17 10:19:11;;;;;;;14.40;10.20;;;;;;;12.00;70.71;98687.20;105183;1263;76256;-29
2024/03/17 10:21:43;;;;;;;12.80;10.00;;;;;;;11.53;72.43;98681.88;104980;1264;75037;-29
2024/03/17 10:24:12;;;;;;;12.70;7.80;;;;;;;11.46;72.94;98682.84;104887;1264;74216;-29
2024/03/17 10:26:58;;;;;;;14.20;8.80;;;;;;;11.92;71.64;98684.13;104788;1270;61896;-29
2024/03/17 10:29:33;;;;;;;12.40;8.60;;;;;;;12.33;71.21;98688.16;105004;1264;62055;-29
2024/03/17 10:32:02;;;;;;;16.50;10.10;;;;;;;12.26;70.67;98684.45;105037;1264;76285;-29
2024/03/17 10:34:40;;;;;;;13.60;9.20;;;;;;;11.88;72.24;98687.37;104886;1269;74826;-30
2024/03/17 10:37:10;;;;;;;12.40;8.70;;;;;;;11.57;72.76;98679.59;104984;1264;73853;-29
2024/03/17 10:39:39;;;;;;;9.40;7.90;;;;;;;12.21;71.55;98683.21;105093;1260;61335;-29
2024/03/17 10:42:07;;;;;;;14.10;8.70;;;;;;;12.68;69.85;98683.77;105212;1266;61858;-29
2024/03/17 10:44:35;;;;;;;14.10;9.50;;;;;;;12.69;69.24;98685.96;105283;1264;75722;-29
2024/03/17 10:47:04;;;;;;;12.20;8.30;;;;;;;12.29;70.34;98679.76;105263;1260;76150;-29
2024/03/17 10:49:33;;;;;;;12.60;9.90;;;;;;;12.03;71.35;98680.45;105277;1264;74325;-29
2024/03/17 10:52:13;;;;;;;11.10;7.20;;;;;;;11.84;71.79;98675.43;105295;1266;62745;-29
2024/03/17 10:54:40;;;;;;;11.70;7.80;;;;;;;12.33;70.72;98673.73;105230;1266;61147;-29
2024/03/17 10:57:33;;;;;;;12.40;8.30;;;;;;;12.77;69.22;98680.34;105288;1261;76132;-30
2024/03/17 11:00:05;;;;;;;13.40;8.90;;;;;;;12.65;68.94;98675.14;105139;1260;75811;-29
2024/03/17 11:02:35;;;;;;;11.00;8.30;;;;;;;12.35;69.83;98673.14;105125;1264;74267;-29
2024/03/17 11:05:04;;;;;;;13.90;9.90;;;;;;;12.09;70.62;98672.77;105152;1260;61768;-29
2024/03/17 11:07:31;;;;;;;10.30;6.50;;;;;;;12.01;71.66;98675.96;105166;1262;62173;-30
2024/03/17 11:09:59;;;;;;;11.30;7.80;;;;;;;12.56;70.20;98671.66;105396;1260;76388;-29
2024/03/17 11:12:47;;;;;;;10.70;8.30;;;;;;;12.70;69.92;98670.92;105188;1261;75834;-29
2024/03/17 11:15:26;;;;;;;13.20;9.30;;;;;;;12.57;70.21;98670.72;105199;1261;74062;-29
2024/03/17 11:17:55;;;;;;;16.70;9.10;;;;;;;12.37;71.13;98667.73;105251;1261;61462;-29
2024/03/17 11:20:27;;;;;;;16.80;11.00;;;;;;;12.12;71.73;98662.12;105044;1260;61307;-29
2024/03/17 11:22:58;;;;;;;10.40;6.60;;;;;;;11.92;73.01;98663.92;104991;1265;73393;-29
2024/03/17 11:25:25;;;;;;;14.60;7.60;;;;;;;12.60;71.42;98666.46;104850;1260;74837;-29
2024/03/17 11:27:53;;;;;;;12.80;8.40;;;;;;;12.86;70.08;98663.25;105366;1261;74027;-28
2024/03/17 11:30:54;;;;;;;12.50;9.60;;;;;;;12.73;70.50;98664.55;105110;1261;61333;-29
2024/03/17 11:33:31;;;;;;;11.80;8.30;;;;;;;12.44;71.38;98669.17;105191;1266;62107;-28
2024/03/17 11:36:23;;;;;;;17.40;10.10;;;;;;;11.92;72.95;98665.44;105203;1260;76510;-28
2024/03/17 11:39:17;;;;;;;10.40;6.80;;;;;;;11.66;74.93;98664.04;105372;1263;76092;-29
2024/03/17 11:41:48;;;;;;;10.90;7.60;;;;;;;12.27;73.05;98663.30;105428;1257;74256;-28
2024/03/17 11:44:18;;;;;;;11.90;7.40;;;;;;;12.47;71.58;98663.49;105293;1257;61649;-28
2024/03/17 11:47:19;;;;;;;12.00;8.10;;;;;;;12.25;72.38;98663.45;105565;1260;61902;-29
2024/03/17 11:49:46;;;;;;;12.70;8.20;;;;;;;11.93;73.50;98663.66;105468;1262;75626;-28
2024/03/17 11:52:15;;;;;;;8.90;6.30;;;;;;;11.66;74.85;98664.50;105455;1260;75541;-28
2024/03/17 11:54:43;;;;;;;11.00;6.20;;;;;;;12.21;73.66;98665.80;105199;1263;74623;-28
2024/03/17 11:57:24;;;;;;;9.40;6.60;;;;;;;12.61;71.71;98670.85;105336;1257;61863;-28
2024/03/17 11:59:52;;;;;;;11.80;7.20;;;;;;;12.59;71.60;98668.41;105561;1262;61339;-28
2024/03/17 12:02:20;;;;;;;10.70;7.70;;;;;;;12.30;72.42;98667.20;105511;1259;75147;-28
2024/03/17 12:04:48;;;;;;;12.30;7.70;;;;;;;12.03;73.18;98664.99;105371;1257;76094;-28
2024/03/17 12:07:19;;;;;;;8.70;5.60;;;;;;;11.72;74.72;98662.65;105316;1263;74539;-28
2024/03/17 12:09:46;;;;;;;8.70;6.10;;;;;;;12.18;73.74;98662.88;105409;1257;61650;-28
2024/03/17 12:12:19;;;;;;;8.40;5.50;;;;;;;12.32;72.68;98663.66;105554;1257;62059;-28
2024/03/17 12:14:47;;;;;;;10.60;5.90;;;;;;;12.21;72.81;98663.73;105377;1263;75913;-28
2024/03/17 12:17:20;;;;;;;9.40;6.70;;;;;;;12.02;73.52;98663.55;105484;1257;72978;-28
2024/03/17 12:19:47;;;;;;;10.40;7.00;;;;;;;11.73;74.44;98664.95;105642;1257;73011;-27
2024/03/17 12:22:21;;;;;;;7.10;4.90;;;;;;;11.44;76.05;98666.16;105585;1264;63581;-27
2024/03/17 12:24:49;;;;;;;4.10;3.40;;;;;;;11.84;74.78;98660.30;105336;1261;61317;-28
2024/03/17 12:27:21;;;;;;;2.80;2.00;;;;;;;11.20;73.88;98643.64;105194;1257;76570;-27
2024/03/17 12:29:49;;;;;;;2.50;1.50;;;;;;;9.90;78.19;98651.09;105289;1260;75873;-26
2024/03/17 12:32:18;;;;;;;2.80;1.70;;;;;;;9.77;79.28;98668.84;105181;1258;73949;-25
2024/03/17 12:34:46;;;;;;;0.90;0.80;;;;;;;9.42;79.88;98672.39;105214;1262;61281;-26
2024/03/17 12:37:18;;;;;;;0.70;0.70;;;;;;;9.11;81.19;98673.00;105168;1262;61283;-25
2024/03/17 12:39:46;;;;;;;0.70;0.60;;;;;;;9.27;80.35;98680.54;105154;1257;76466;-25
2024/03/17 12:42:16;;;;;;;1.00;0.70;;;;;;;9.10;80.58;98680.27;105333;1257;74752;-24
2024/03/17 12:44:51;;;;;;;0.60;0.60;;;;;;;8.78;81.84;98682.40;105171;1258;72986;-27
2024/03/17 12:47:20;;;;;;;0.80;0.60;;;;;;;8.67;82.50;98685.02;105326;1257;63924;-24
2024/03/17 12:49:55;;;;;;;1.70;0.60;;;;;;;8.91;81.28;98684.67;105287;1261;61436;-24
2024/03/17 12:52:32;;;;;;;0.60;0.60;;;;;;;8.91;80.76;98685.57;105421;1258;76018;-24
2024/03/17 13:00:35;;;;;;;1.10;0.70;;;;;;;9.15;80.43;98693.67;105430;1257;61948;-24
2024/03/17 13:03:03;;;;;;;0.70;0.70;;;;;;;8.88;81.09;98690.46;105612;1258;63570;-25
2024/03/17 13:05:31;;;;;;;1.00;0.90;;;;;;;8.71;81.29;98685.41;105342;1257;76395;-24
2024/03/17 13:07:59;;;;;;;1.10;0.70;;;;;;;8.47;81.76;98685.48;105307;1262;75896;-24
2024/03/17 13:10:30;;;;;;;0.50;0.50;;;;;;;8.57;81.70;98685.27;105436;1254;74062;-25
2024/03/17 13:13:02;;;;;;;1.50;0.50;;;;;;;8.70;80.70;98686.02;105179;1258;62154;-25
2024/03/17 13:15:35;;;;;;;1.10;0.70;;;;;;;8.62;80.77;98687.63;105330;1260;61877;-24
2024/03/17 13:18:03;;;;;;;0.50;0.50;;;;;;;8.82;80.07;98698.36;105332;1257;76280;-24
2024/03/17 13:20:31;;;;;;;1.00;0.70;;;;;;;8.45;80.14;98680.70;105362;1257;74324;-24
2024/03/17 13:23:01;;;;;;;1.10;0.60;;;;;;;8.67;79.11;98690.05;105211;1257;74245;-24
2024/03/17 13:25:33;;;;;;;0.60;0.50;;;;;;;8.58;78.60;98686.05;105323;1260;61898;-24
2024/03/17 13:28:01;;;;;;;1.20;0.60;;;;;;;8.39;80.04;98689.58;105583;1260;61253;-24
2024/03/17 13:30:29;;;;;;;1.90;0.80;;;;;;;8.24;80.69;98690.23;105877;1251;76093;-24
2024/03/17 13:32:59;;;;;;;1.60;0.80;;;;;;;8.12;81.42;98694.77;105984;1251;75000;-25
2024/03/17 13:35:29;;;;;;;1.10;0.70;;;;;;;8.42;80.05;98697.34;105960;1251;74099;-28
2024/03/17 13:38:01;;;;;;;1.00;0.80;;;;;;;8.43;79.57;98699.67;105725;1254;62008;-27
2024/03/17 13:40:28;;;;;;;0.70;0.70;;;;;;;8.27;81.00;98701.05;105661;1256;61256;-26
2024/03/17 13:42:56;;;;;;;1.10;0.60;;;;;;;8.74;79.21;98704.69;105616;1256;76023;-26
2024/03/17 13:45:26;;;;;;;1.30;1.10;;;;;;;8.86;76.92;98697.54;105690;1251;74843;-27
2024/03/17 13:48:04;;;;;;;3.10;1.40;;;;;;;8.48;77.03;98703.28;105647;1258;73178;-27
2024/03/17 13:50:31;;;;;;;2.80;1.40;;;;;;;7.97;78.42;98695.56;105868;1251;61821;-27
2024/03/17 13:52:58;;;;;;;5.00;1.70;;;;;;;7.70;79.85;98707.77;105924;1256;61998;-26
2024/03/17 13:55:26;;;;;;;2.80;1.40;;;;;;;8.13;78.01;98711.80;105733;1251;76044;-26
2024/03/17 13:57:55;;;;;;;2.80;1.40;;;;;;;7.82;78.07;98703.76;105767;1257;75846;-27
2024/03/17 14:00:29;;;;;;;5.20;1.90;;;;;;;7.69;78.52;98706.66;105814;1251;72530;-26
2024/03/17 14:02:56;;;;;;;3.60;1.60;;;;;;;7.46;79.68;98707.96;105542;1260;61842;-26
2024/03/17 14:05:24;;;;;;;2.80;1.60;;;;;;;7.32;80.60;98710.73;105701;1256;61215;-26
2024/03/17 14:07:53;;;;;;;3.00;1.60;;;;;;;7.55;78.88;98715.27;105524;1251;76239;-26
2024/03/17 14:10:21;;;;;;;2.40;1.30;;;;;;;7.69;77.83;98717.89;105702;1251;76074;-26
2024/03/17 14:12:49;;;;;;;5.90;2.10;;;;;;;7.50;78.36;98721.14;105583;1251;74199;-26
2024/03/17 14:15:16;;;;;;;3.60;1.60;;;;;;;7.38;78.73;98719.65;105639;1256;63319;-26
2024/03/17 14:17:45;;;;;;;4.60;1.60;;;;;;;7.40;77.99;98716.17;105490;1259;61715;-26
2024/03/17 14:20:13;;;;;;;3.30;1.50;;;;;;;7.43;76.99;98712.68;105696;1251;76445;-25
2024/03/17 14:22:42;;;;;;;4.60;1.70;;;;;;;7.55;76.49;98717.30;105515;1257;76284;-25